Share

Skiathos Island, Greece

5:19 PM EEST on April 24, 2014 (GMT +0300)
Skopelos Greece (I697) Elev 259 ft | 39.13 °N, 23.72 °E | Change Station
Active Advisory: Thunderstorms

Current weather conditions updated 3 seconds ago

Mostly Cloudy
Mostly Cloudy
68.9 °F
Feels Like 68.9 °F
N
0.1
Wind Variable Wind from WSW
Gusts 1.6 mph
Sunrise 6:36 AM
Sunset 8:11 PM
Moon Waning Crescent

Tomorrow is forecast to be Much Cooler than today. Morning showers.

Pressure 29.71 in
Visibility 6.2 miles
Clouds Few 1800 ft
Scattered Clouds 3000 ft
Mostly Cloudy 8000 ft
Dew Point 61 °F
Humidity 75%
Rainfall 0.00 in
Snow Depth Not available.
UV 0.0 out of 16
Pollen Not available.
Air Quality Not available.
Flu Activity Not available.
METAR LGBL 241350Z 08004KT 9999 FEW018TCU SCT030 BKN080 21/12 Q1006 NOSIG

More Conditions Fewer Conditions

Pressure 29.71 in
Visibility 6.2 miles
Clouds Few 1800 ft
Scattered Clouds 3000 ft
Mostly Cloudy 8000 ft
Dew Point 61 °F
Humidity 75%
Rainfall 0.00 in
Snow Depth Not available.
UV 0.0 out of 16
Pollen Not available.
Air Quality Not available.
Flu Activity Not available.
METAR LGBL 241350Z 08004KT 9999 FEW018TCU SCT030 BKN080 21/12 Q1006 NOSIG

More Conditions Fewer Conditions

10-Day Weather Forecast

Almanac

Astronomy

Apr. 24, 2014 Rise Set
Actual Time 6:36 AM EEST 8:11 PM EEST
Civil Twilight 6:08 AM EEST 8:40 PM EEST
Nautical Twilight 5:34 AM EEST 9:14 PM EEST
Astronomical Twilight 4:58 AM EEST 9:50 PM EEST
Moon 3:33 AM EEST 3:08 PM EEST
Length of Visible Light 14h 31m
Length of Day
13h 35m
Tomorrow will be 2m 19s longer.
Waning Crescent, 25% of the Moon is Illuminated
Today
Waning Crescent
Apr 29
New
May 6
First Quarter
May 14
Full
May 21
Last Quarter

Yesterday's Extremes

Country Highs Country Lows

Community

  • Clouds mov'n in
    Clouds mov'n in
  • Stacked
    Stacked
  • clouds approaching Red Sox Nation
    clouds approaching Red Sox Nation
  • Balance
    Balance
  • Citysky
    Citysky

WunderPhotos

Upload Photos

1,704,619 photos uploaded!

WunderBlogs® & News

Nearby

Snow Depth

Not available.

Coastal Water Temperatures

Place Temperature
No Stations Reporting

Earthquake Activity

City Distance Mag. Time & Date
No recent earthquake activity has been reported nearby.
Minimum magnitude displayed is 2.5.

Nearby Weather Stations

Station Location Temp. Dew Point Humidity Wind Precip. Elev Updated Type
Skopelos Greece, Ελλάδα 68.9 °F 61 °F 75% WSW  at  0.1 mph 0.00 in / hr 259 ft 5:19 PM EEST Rapid Fire
ALONISSOS 66.9 °F 60 °F 80% ENE  at  3.0 mph 0.00 in / hr 125 ft 5:17 PM EEST Normal

Show More Stations Show Fewer Stations

What do you think?

We're not finished. Please let us know what you like, what you don't like, and what you are still missing.